createdAt,value
2017-10-31T00:01:28.666Z,8.10
2017-10-31T00:04:30.087Z,8.10
2017-10-31T00:07:31.525Z,8.10
2017-10-31T00:10:32.951Z,8.20
2017-10-31T00:13:34.400Z,8.20
2017-10-31T00:16:35.778Z,8.20
2017-10-31T00:19:37.226Z,8.20
2017-10-31T00:22:38.636Z,8.30
2017-10-31T00:25:40.146Z,8.20
2017-10-31T00:28:41.600Z,8.20
2017-10-31T00:31:43.011Z,8.30
2017-10-31T00:34:44.446Z,8.00
2017-10-31T00:37:45.905Z,8.10
2017-10-31T00:40:47.328Z,8.20
2017-10-31T00:43:48.835Z,8.20
2017-10-31T00:46:51.006Z,8.20
2017-10-31T00:49:53.179Z,8.20
2017-10-31T00:52:54.633Z,8.00
2017-10-31T00:55:56.819Z,8.10
2017-10-31T00:58:58.239Z,8.10
2017-10-31T01:02:00.457Z,8.20
2017-10-31T01:05:02.687Z,8.20
2017-10-31T01:08:04.847Z,8.20
2017-10-31T01:11:07.053Z,8.20
2017-10-31T01:14:08.535Z,7.90
2017-10-31T01:17:09.987Z,8.20
2017-10-31T01:20:11.367Z,8.10
2017-10-31T01:23:12.863Z,8.30
2017-10-31T01:26:14.271Z,8.00
2017-10-31T01:29:15.739Z,8.10
2017-10-31T01:32:18.006Z,8.30
2017-10-31T01:35:20.159Z,8.40
2017-10-31T01:38:21.671Z,8.40
2017-10-31T01:41:23.117Z,8.40
2017-10-31T01:44:24.574Z,8.40
2017-10-31T01:47:26.047Z,8.20
2017-10-31T01:50:27.491Z,8.40
2017-10-31T01:53:28.965Z,8.40
2017-10-31T01:56:30.372Z,8.40
2017-10-31T01:59:31.837Z,8.40
2017-10-31T02:02:33.350Z,8.40
2017-10-31T02:05:35.626Z,8.30
2017-10-31T02:08:37.876Z,8.30
2017-10-31T02:11:39.363Z,8.30
2017-10-31T02:14:41.568Z,8.50
2017-10-31T02:17:43.030Z,8.30
2017-10-31T02:20:44.530Z,8.40
2017-10-31T02:23:46.775Z,8.40
2017-10-31T02:26:48.314Z,8.30
2017-10-31T02:29:49.776Z,8.20
2017-10-31T02:32:51.284Z,8.50
2017-10-31T02:35:52.863Z,8.50
2017-10-31T02:39:12.844Z,8.40
2017-10-31T02:42:14.391Z,8.50
2017-10-31T02:45:15.830Z,8.40
2017-10-31T02:48:17.340Z,8.50
2017-10-31T02:51:18.788Z,8.20
2017-10-31T02:54:20.295Z,8.40
2017-10-31T02:57:21.837Z,8.50
2017-10-31T03:00:24.036Z,8.30
2017-10-31T03:03:25.552Z,8.30
2017-10-31T03:06:27.091Z,8.40
2017-10-31T03:09:28.617Z,8.10
2017-10-31T03:12:30.050Z,8.40
2017-10-31T03:15:31.509Z,8.40
2017-10-31T03:18:33.015Z,8.40
2017-10-31T03:21:35.279Z,8.20
2017-10-31T03:24:36.745Z,8.20
2017-10-31T03:27:39.041Z,8.20
2017-10-31T03:30:40.554Z,8.10
2017-10-31T03:33:42.011Z,8.10
2017-10-31T03:36:44.213Z,8.10
2017-10-31T03:39:45.766Z,8.10
2017-10-31T03:42:47.256Z,7.90
2017-10-31T03:45:48.723Z,8.20
2017-10-31T03:48:50.187Z,7.90
2017-10-31T03:51:51.686Z,8.20
2017-10-31T03:54:53.198Z,8.20
2017-10-31T03:57:55.419Z,8.30
2017-10-31T04:00:56.859Z,8.20
2017-10-31T04:03:58.360Z,8.40
2017-10-31T04:06:59.923Z,8.10
2017-10-31T04:10:01.396Z,8.40
2017-10-31T04:13:03.571Z,8.30
2017-10-31T04:16:05.750Z,8.30
2017-10-31T04:19:07.219Z,8.40
2017-10-31T04:22:08.649Z,8.20
2017-10-31T04:25:10.915Z,8.40
2017-10-31T04:28:13.116Z,8.40
2017-10-31T04:31:14.607Z,8.20
2017-10-31T04:34:16.052Z,8.50
2017-10-31T04:37:18.240Z,8.40
2017-10-31T04:40:19.704Z,8.40
2017-10-31T04:43:21.925Z,8.40
2017-10-31T04:46:23.420Z,8.40
2017-10-31T04:49:24.938Z,8.20
2017-10-31T04:52:26.383Z,8.40
2017-10-31T04:55:27.863Z,8.40
2017-10-31T04:58:29.266Z,8.30
2017-10-31T05:04:38.758Z,8.20
2017-10-31T05:07:40.290Z,8.30
2017-10-31T05:10:41.728Z,8.30
2017-10-31T05:13:43.295Z,8.30
2017-10-31T05:16:44.738Z,8.30
2017-10-31T05:19:46.269Z,8.30
2017-10-31T05:22:48.504Z,8.30
2017-10-31T05:25:49.966Z,8.30
2017-10-31T05:28:51.441Z,8.40
2017-10-31T05:31:53.596Z,8.20
2017-10-31T05:34:55.041Z,8.20
2017-10-31T05:37:56.518Z,8.00
2017-10-31T05:40:58.698Z,8.50
2017-10-31T05:44:00.962Z,8.40
2017-10-31T05:47:02.952Z,8.40
2017-10-31T05:50:04.464Z,8.20
2017-10-31T05:53:05.903Z,8.30
2017-10-31T05:56:07.378Z,8.20
2017-10-31T05:59:08.780Z,8.30
2017-10-31T06:02:10.210Z,8.30
2017-10-31T06:05:11.664Z,8.30
2017-10-31T06:08:13.151Z,8.40
2017-10-31T06:11:14.564Z,8.30
2017-10-31T06:14:15.978Z,8.30
2017-10-31T06:17:17.432Z,8.60
2017-10-31T06:20:19.599Z,8.30
2017-10-31T06:27:08.154Z,8.30
2017-10-31T06:33:47.935Z,8.30
2017-10-31T06:36:49.392Z,8.10
2017-10-31T06:39:50.915Z,8.40
2017-10-31T06:42:52.439Z,8.10
2017-10-31T06:45:54.604Z,8.30
2017-10-31T06:48:56.847Z,8.40
2017-10-31T06:51:58.318Z,8.50
2017-10-31T06:54:59.793Z,8.30
2017-10-31T06:58:01.317Z,8.30
2017-10-31T07:01:03.532Z,8.40
2017-10-31T07:04:04.972Z,8.30
2017-10-31T07:07:06.407Z,8.40
2017-10-31T07:10:07.971Z,8.30
2017-10-31T07:13:09.422Z,8.40
2017-10-31T07:16:11.646Z,8.40
2017-10-31T07:19:13.200Z,8.40
2017-10-31T07:22:15.493Z,8.50
2017-10-31T07:25:17.709Z,8.50
2017-10-31T07:28:19.319Z,8.50
2017-10-31T07:31:20.836Z,8.60
2017-10-31T07:34:22.308Z,8.60
2017-10-31T07:37:23.893Z,8.70
2017-10-31T07:40:26.153Z,8.50
2017-10-31T07:43:27.682Z,8.60
2017-10-31T07:46:29.171Z,8.60
2017-10-31T07:49:31.512Z,8.60
2017-10-31T07:52:33.062Z,8.60
2017-10-31T07:55:34.604Z,8.50
2017-10-31T07:58:36.108Z,8.50
2017-10-31T08:01:37.582Z,8.60
2017-10-31T08:04:39.084Z,8.60
2017-10-31T08:07:40.706Z,8.70
2017-10-31T08:10:42.197Z,8.70
2017-10-31T08:13:43.751Z,8.80
2017-10-31T08:16:45.277Z,8.70
2017-10-31T08:19:46.817Z,8.80
2017-10-31T08:22:48.344Z,9.00
2017-10-31T08:25:50.626Z,9.00
2017-10-31T08:28:52.865Z,9.00
2017-10-31T08:31:54.408Z,9.00
2017-10-31T08:34:55.894Z,9.00
2017-10-31T08:37:58.182Z,9.00
2017-10-31T08:40:59.764Z,8.90
2017-10-31T08:44:01.284Z,9.00
2017-10-31T08:47:03.556Z,9.10
2017-10-31T08:50:05.818Z,9.10
2017-10-31T08:53:07.375Z,9.10
2017-10-31T08:56:09.581Z,9.10
2017-10-31T08:59:11.124Z,9.10
2017-10-31T09:02:12.739Z,9.20
2017-10-31T09:05:14.271Z,9.20
2017-10-31T09:08:15.777Z,9.20
2017-10-31T09:11:17.273Z,8.80
2017-10-31T09:14:18.840Z,9.20
2017-10-31T09:17:20.323Z,9.20
2017-10-31T09:20:22.595Z,9.30
2017-10-31T09:23:24.815Z,9.40
2017-10-31T09:26:26.337Z,9.40
2017-10-31T09:29:28.682Z,9.50
2017-10-31T09:32:30.165Z,9.50
2017-10-31T09:35:32.454Z,9.40
2017-10-31T09:38:34.001Z,9.40
2017-10-31T09:41:35.519Z,9.30
2017-10-31T09:44:37.731Z,9.30
2017-10-31T09:47:39.268Z,9.30
2017-10-31T09:50:40.806Z,9.30
2017-10-31T09:53:43.026Z,9.30
2017-10-31T09:56:44.625Z,9.30
2017-10-31T09:59:46.934Z,9.40
2017-10-31T10:02:48.467Z,9.30
2017-10-31T10:05:50.736Z,9.40
2017-10-31T10:08:53.041Z,9.40
2017-10-31T10:11:54.535Z,9.40
2017-10-31T10:14:56.160Z,9.40
2017-10-31T10:17:57.661Z,9.50
2017-10-31T10:20:59.191Z,9.50
2017-10-31T10:24:00.720Z,9.40
2017-10-31T10:27:02.230Z,9.30
2017-10-31T10:30:04.507Z,9.40
2017-10-31T10:33:06.739Z,9.30
2017-10-31T10:36:08.240Z,9.30
2017-10-31T10:39:10.592Z,9.40
2017-10-31T10:42:12.167Z,9.40
2017-10-31T10:45:14.390Z,9.50
2017-10-31T10:48:15.960Z,9.40
2017-10-31T10:51:17.510Z,9.40
2017-10-31T10:54:19.018Z,9.50
2017-10-31T10:57:20.516Z,9.40
2017-10-31T11:00:28.118Z,9.40
2017-10-31T11:03:29.640Z,9.30
2017-10-31T11:06:31.219Z,9.50
2017-10-31T11:09:32.794Z,9.50
2017-10-31T11:12:34.300Z,9.60
2017-10-31T11:15:35.833Z,9.70
2017-10-31T11:18:37.448Z,9.50
2017-10-31T11:21:39.075Z,9.80
2017-10-31T11:24:40.616Z,9.60
2017-10-31T11:27:42.100Z,9.70
2017-10-31T11:30:43.647Z,9.70
2017-10-31T11:33:45.150Z,9.80
2017-10-31T11:36:46.799Z,9.80
2017-10-31T11:39:49.070Z,9.90
2017-10-31T11:42:50.616Z,9.80
2017-10-31T11:45:52.883Z,9.80
2017-10-31T11:48:54.398Z,9.80
2017-10-31T11:51:55.951Z,9.80
2017-10-31T11:54:57.555Z,9.80
2017-10-31T11:57:59.124Z,9.60
2017-10-31T12:01:00.665Z,9.60
2017-10-31T12:04:02.955Z,9.70
2017-10-31T12:07:04.475Z,9.80
2017-10-31T12:10:05.973Z,9.90
2017-10-31T12:13:08.227Z,10.00
2017-10-31T12:16:10.525Z,9.90
2017-10-31T12:19:12.092Z,9.90
2017-10-31T12:22:13.643Z,9.70
2017-10-31T12:25:15.167Z,9.90
2017-10-31T12:28:17.408Z,10.10
2017-10-31T12:31:18.961Z,10.10
2017-10-31T12:34:20.498Z,9.90
2017-10-31T12:37:22.113Z,10.10
2017-10-31T12:40:24.438Z,10.10
2017-10-31T12:43:26.040Z,10.10
2017-10-31T12:46:27.650Z,10.20
2017-10-31T12:49:29.220Z,10.30
2017-10-31T12:52:30.756Z,10.20
2017-10-31T12:55:32.248Z,10.20
2017-10-31T12:58:34.584Z,10.20
2017-10-31T13:01:36.094Z,10.00
2017-10-31T13:04:37.698Z,10.20
2017-10-31T13:07:39.360Z,10.30
2017-10-31T13:10:41.303Z,10.20
2017-10-31T13:13:43.189Z,10.40
2017-10-31T13:16:45.746Z,10.30
2017-10-31T13:19:47.808Z,10.30
2017-10-31T13:22:49.398Z,10.20
2017-10-31T13:25:51.948Z,10.10
2017-10-31T13:28:56.080Z,10.30
2017-10-31T13:31:59.247Z,10.20
2017-10-31T13:35:02.553Z,11.90
2017-10-31T13:38:04.928Z,11.50
2017-10-31T13:41:09.376Z,11.20
2017-10-31T13:44:12.808Z,10.80
2017-10-31T13:47:14.835Z,10.60
2017-10-31T13:50:17.709Z,10.50
2017-10-31T13:53:20.901Z,10.40
2017-10-31T13:56:22.553Z,10.30
2017-10-31T13:59:24.216Z,10.30
2017-10-31T14:02:28.347Z,10.30
2017-10-31T14:05:30.992Z,10.30
2017-10-31T14:08:34.547Z,10.20
2017-10-31T14:11:37.737Z,10.30
2017-10-31T14:14:40.093Z,10.30
2017-10-31T14:17:42.089Z,10.30
2017-10-31T14:20:46.008Z,10.30
2017-10-31T14:23:49.494Z,10.30
2017-10-31T14:26:52.043Z,10.40
2017-10-31T14:29:54.947Z,10.20
2017-10-31T14:32:57.225Z,10.20
2017-10-31T14:35:58.914Z,10.30
2017-10-31T14:39:00.832Z,10.20
2017-10-31T14:42:02.886Z,10.00
2017-10-31T14:45:05.270Z,10.20
2017-10-31T14:48:07.313Z,10.20
2017-10-31T14:51:09.506Z,10.10
2017-10-31T14:54:11.575Z,10.10
2017-10-31T14:57:14.994Z,10.30
2017-10-31T15:00:17.170Z,10.00
2017-10-31T15:03:20.445Z,10.00
2017-10-31T15:06:22.193Z,9.80
2017-10-31T15:09:24.631Z,10.00
2017-10-31T15:12:26.818Z,9.90
2017-10-31T15:15:29.541Z,10.00
2017-10-31T15:18:32.438Z,10.10
2017-10-31T15:21:35.431Z,10.00
2017-10-31T15:24:39.694Z,10.10
2017-10-31T15:27:41.445Z,10.10
2017-10-31T15:30:43.054Z,10.00
2017-10-31T15:33:45.505Z,10.00
2017-10-31T15:36:47.050Z,10.00
2017-10-31T15:39:49.808Z,10.00
2017-10-31T15:42:51.411Z,10.00
2017-10-31T15:45:52.982Z,10.10
2017-10-31T15:48:55.736Z,10.00
2017-10-31T15:52:00.280Z,10.00
2017-10-31T15:55:03.351Z,10.10
2017-10-31T15:58:06.298Z,10.00
2017-10-31T16:01:09.990Z,9.90
2017-10-31T16:04:11.855Z,10.00
2017-10-31T16:07:14.307Z,9.80
2017-10-31T16:10:16.665Z,9.90
2017-10-31T16:13:20.020Z,9.90
2017-10-31T16:16:23.823Z,9.90
2017-10-31T16:19:28.467Z,9.90
2017-10-31T16:22:30.802Z,9.90
2017-10-31T16:25:32.574Z,9.90
2017-10-31T16:28:35.343Z,9.90
2017-10-31T16:31:36.983Z,9.80
2017-10-31T16:34:38.696Z,9.80
2017-10-31T16:37:41.087Z,9.80
2017-10-31T16:40:42.668Z,9.80
2017-10-31T16:43:44.369Z,9.70
2017-10-31T16:46:46.034Z,9.70
2017-10-31T16:49:48.410Z,9.80
2017-10-31T16:52:50.752Z,9.70
2017-10-31T16:55:52.425Z,9.70
2017-10-31T16:58:54.915Z,9.70
2017-10-31T17:01:57.345Z,9.80
2017-10-31T17:05:00.018Z,9.80
2017-10-31T17:08:01.750Z,9.80
2017-10-31T17:11:04.204Z,9.80
2017-10-31T17:14:05.867Z,9.80
2017-10-31T17:17:08.215Z,9.80
2017-10-31T17:20:10.025Z,9.80
2017-10-31T17:23:11.748Z,9.70
2017-10-31T17:26:13.347Z,9.70
2017-10-31T17:29:15.120Z,9.70
2017-10-31T17:32:16.708Z,9.80
2017-10-31T17:35:18.495Z,9.70
2017-10-31T17:38:20.833Z,9.60
2017-10-31T17:41:22.476Z,9.60
2017-10-31T17:44:24.142Z,9.70
2017-10-31T17:47:25.805Z,9.60
2017-10-31T17:50:27.643Z,9.70
2017-10-31T17:53:29.253Z,9.70
2017-10-31T17:56:30.939Z,9.70
2017-10-31T17:59:33.358Z,9.80
2017-10-31T18:02:34.933Z,9.70
2017-10-31T18:05:36.712Z,9.70
2017-10-31T18:08:39.035Z,9.80
2017-10-31T18:11:40.728Z,9.70
2017-10-31T18:14:44.382Z,9.70
2017-10-31T18:17:46.066Z,9.70
2017-10-31T18:20:47.852Z,9.80
2017-10-31T18:23:49.415Z,9.80
2017-10-31T18:26:51.787Z,9.80
2017-10-31T18:29:53.475Z,9.60
2017-10-31T18:32:55.094Z,9.80
2017-10-31T18:35:56.675Z,9.80
2017-10-31T18:38:59.079Z,9.80
2017-10-31T18:42:00.763Z,9.60
2017-10-31T18:45:02.465Z,9.90
2017-10-31T18:48:04.821Z,9.80
2017-10-31T18:51:06.341Z,9.80
2017-10-31T18:54:07.966Z,9.70
2017-10-31T18:57:09.559Z,9.80
2017-10-31T19:00:11.176Z,9.80
2017-10-31T19:03:12.749Z,9.90
2017-10-31T19:06:14.366Z,9.60
2017-10-31T19:09:16.680Z,9.90
2017-10-31T19:12:18.227Z,9.90
2017-10-31T19:15:19.782Z,9.90
2017-10-31T19:18:21.348Z,10.00
2017-10-31T19:21:22.877Z,10.00
2017-10-31T19:24:24.460Z,9.90
2017-10-31T19:27:25.987Z,9.90
2017-10-31T19:30:27.560Z,10.00
2017-10-31T19:33:29.082Z,10.10
2017-10-31T19:36:31.397Z,10.00
2017-10-31T19:39:32.980Z,10.10
2017-10-31T19:42:34.571Z,10.00
2017-10-31T19:45:36.214Z,9.90
2017-10-31T19:48:38.529Z,10.00
2017-10-31T19:51:40.076Z,9.80
2017-10-31T19:54:41.712Z,10.10
2017-10-31T19:57:43.996Z,10.00
2017-10-31T20:00:45.541Z,9.90
2017-10-31T20:03:47.150Z,10.00
2017-10-31T20:06:48.722Z,9.90
2017-10-31T20:09:50.247Z,10.10
2017-10-31T20:12:51.795Z,9.80
2017-10-31T20:15:53.360Z,10.10
2017-10-31T20:18:54.912Z,10.00
2017-10-31T20:21:56.463Z,9.90
2017-10-31T20:24:57.999Z,9.90
2017-10-31T20:27:59.599Z,9.90
2017-10-31T20:31:01.143Z,9.90
2017-10-31T20:34:02.734Z,9.90
2017-10-31T20:37:05.038Z,9.90
2017-10-31T20:40:06.660Z,10.00
2017-10-31T20:43:08.951Z,9.90
2017-10-31T20:46:11.200Z,9.90
2017-10-31T20:49:12.738Z,9.80
2017-10-31T20:52:14.303Z,9.90
2017-10-31T20:55:15.862Z,9.80
2017-10-31T20:58:17.392Z,9.80
2017-10-31T21:01:18.878Z,9.70
2017-10-31T21:04:20.434Z,9.70
2017-10-31T21:07:22.703Z,9.60
2017-10-31T21:10:24.210Z,9.70
2017-10-31T21:13:25.736Z,9.50
2017-10-31T21:16:27.270Z,9.60
2017-10-31T21:19:28.765Z,9.30
2017-10-31T21:22:30.311Z,9.20
2017-10-31T21:25:31.873Z,9.30
2017-10-31T21:28:33.426Z,9.40
2017-10-31T21:31:34.974Z,9.20
2017-10-31T21:34:36.534Z,9.30
2017-10-31T21:37:38.082Z,9.40
2017-10-31T21:40:39.678Z,9.20
2017-10-31T21:43:41.158Z,9.30
2017-10-31T21:46:42.685Z,9.10
2017-10-31T21:49:44.218Z,9.30
2017-10-31T21:52:45.748Z,9.20
2017-10-31T21:55:47.983Z,9.30
2017-10-31T21:58:49.451Z,9.30
2017-10-31T22:01:50.967Z,9.20
2017-10-31T22:04:52.453Z,9.40
2017-10-31T22:07:53.967Z,9.40
2017-10-31T22:10:55.466Z,9.20
2017-10-31T22:13:56.989Z,9.30
2017-10-31T22:16:58.504Z,9.40
2017-10-31T22:20:00.028Z,9.40
2017-10-31T22:23:01.567Z,9.50
2017-10-31T22:26:03.131Z,9.30
2017-10-31T22:29:04.656Z,9.30
2017-10-31T22:32:06.168Z,9.30
2017-10-31T22:35:08.438Z,9.30
2017-10-31T22:38:10.694Z,9.30
2017-10-31T22:41:13.058Z,9.30
2017-10-31T22:44:14.573Z,9.10
2017-10-31T22:47:16.074Z,9.30
2017-10-31T22:50:18.450Z,9.40
2017-10-31T22:53:20.718Z,9.40
2017-10-31T22:56:22.271Z,9.40
2017-10-31T22:59:23.742Z,9.50
2017-10-31T23:02:25.337Z,9.40
2017-10-31T23:05:26.850Z,9.30
2017-10-31T23:08:28.587Z,9.30
2017-10-31T23:11:30.913Z,9.30
2017-10-31T23:14:32.438Z,9.00
2017-10-31T23:17:34.722Z,9.40
2017-10-31T23:20:36.244Z,9.40
2017-10-31T23:23:38.564Z,9.50
2017-10-31T23:26:40.144Z,9.40
2017-10-31T23:29:41.734Z,9.50
2017-10-31T23:32:43.958Z,9.50
2017-10-31T23:35:45.508Z,9.50
2017-10-31T23:38:47.042Z,9.60
2017-10-31T23:41:48.640Z,9.40
2017-10-31T23:44:50.116Z,9.40
2017-10-31T23:47:51.645Z,9.30
2017-10-31T23:50:53.152Z,9.40
2017-10-31T23:53:55.362Z,9.40
2017-10-31T23:56:56.931Z,9.50
2017-10-31T23:59:59.179Z,9.40
